createdAt,value
2023-02-09T00:00:17.477Z,-2.47
2023-02-09T00:02:44.339Z,-2.85
2023-02-09T00:05:11.637Z,-3.06
2023-02-09T00:07:38.259Z,-2.98
2023-02-09T00:10:05.951Z,-3.21
2023-02-09T00:12:51.341Z,-3.53
2023-02-09T00:15:18.039Z,-3.09
2023-02-09T00:17:44.754Z,-3.15
2023-02-09T00:20:11.609Z,-2.81
2023-02-09T00:22:38.175Z,-3.10
2023-02-09T00:25:05.042Z,-2.87
2023-02-09T00:27:35.401Z,-3.08
2023-02-09T00:30:04.356Z,-2.96
2023-02-09T00:32:33.128Z,-2.81
2023-02-09T00:34:59.951Z,-2.99
2023-02-09T00:37:26.634Z,-3.32
2023-02-09T00:39:53.278Z,-3.23
2023-02-09T00:42:19.896Z,-3.34
2023-02-09T00:44:46.545Z,-3.82
2023-02-09T00:47:13.212Z,-4.08
2023-02-09T00:49:40.256Z,-3.90
2023-02-09T00:52:08.922Z,-3.32
2023-02-09T00:54:36.577Z,-3.30
2023-02-09T00:57:06.126Z,-3.87
2023-02-09T00:59:34.754Z,-3.75
2023-02-09T01:02:02.026Z,-3.05
2023-02-09T01:04:28.741Z,-3.37
2023-02-09T01:06:55.440Z,-3.44
2023-02-09T01:09:22.182Z,-3.17
2023-02-09T01:11:48.933Z,-3.20
2023-02-09T01:14:16.164Z,-3.10
2023-02-09T01:16:43.156Z,-3.34
2023-02-09T01:19:11.854Z,-3.39
2023-02-09T01:21:38.577Z,-3.34
2023-02-09T01:24:05.492Z,-3.53
2023-02-09T01:26:32.412Z,-3.55
2023-02-09T01:28:58.993Z,-3.56
2023-02-09T01:31:31.801Z,-3.24
2023-02-09T01:34:00.962Z,-3.41
2023-02-09T01:36:28.934Z,-3.37
2023-02-09T01:38:57.762Z,-3.53
2023-02-09T01:41:25.097Z,-3.67
2023-02-09T01:43:53.544Z,-3.87
2023-02-09T01:46:22.164Z,-3.72
2023-02-09T01:48:53.518Z,-3.44
2023-02-09T01:51:20.600Z,-3.50
2023-02-09T01:53:47.955Z,-3.67
2023-02-09T01:56:23.507Z,-3.64
2023-02-09T01:58:50.373Z,-3.35
2023-02-09T02:01:17.994Z,-3.43
2023-02-09T02:03:45.551Z,-3.43
2023-02-09T02:06:15.588Z,-3.56
2023-02-09T02:08:48.870Z,-3.54
2023-02-09T02:11:16.789Z,-3.73
2023-02-09T02:13:43.645Z,-3.56
2023-02-09T02:16:39.413Z,-3.53
2023-02-09T02:19:34.077Z,-3.41
2023-02-09T02:22:22.354Z,-3.41
2023-02-09T02:25:13.833Z,-3.48
2023-02-09T02:27:59.273Z,-3.74
2023-02-09T02:30:55.532Z,-3.45
2023-02-09T02:33:37.574Z,-3.64
2023-02-09T02:36:16.903Z,-3.60
2023-02-09T02:39:07.000Z,-3.51
2023-02-09T02:42:18.311Z,-3.70
2023-02-09T02:44:56.161Z,-3.77
2023-02-09T02:47:24.759Z,-3.54
2023-02-09T02:49:56.994Z,-3.73
2023-02-09T02:52:23.748Z,-3.93
2023-02-09T02:55:02.660Z,-3.93
2023-02-09T02:57:33.382Z,-3.58
2023-02-09T03:00:10.061Z,-3.76
2023-02-09T03:02:59.162Z,-3.90
2023-02-09T03:05:28.071Z,-3.71
2023-02-09T03:07:54.729Z,-4.06
2023-02-09T03:10:39.188Z,-4.12
2023-02-09T03:13:24.281Z,-3.91
2023-02-09T03:16:14.076Z,-3.72
2023-02-09T03:18:59.509Z,-4.04
2023-02-09T03:21:43.659Z,-4.16
2023-02-09T03:24:18.909Z,-4.05
2023-02-09T03:26:51.355Z,-3.94
2023-02-09T03:29:20.103Z,-4.14
2023-02-09T03:31:49.078Z,-3.99
2023-02-09T03:34:16.550Z,-4.04
2023-02-09T03:36:44.862Z,-3.93
2023-02-09T03:39:11.487Z,-3.91
2023-02-09T03:41:38.234Z,-4.00
2023-02-09T03:44:23.719Z,-4.36
2023-02-09T03:46:50.430Z,-4.19
2023-02-09T03:49:17.139Z,-3.94
2023-02-09T03:51:43.760Z,-3.92
2023-02-09T03:54:10.459Z,-3.72
2023-02-09T03:56:37.637Z,-3.91
2023-02-09T03:59:07.224Z,-4.09
2023-02-09T04:01:33.882Z,-4.33
2023-02-09T04:04:02.286Z,-4.17
2023-02-09T04:06:31.864Z,-4.41
2023-02-09T04:09:00.082Z,-4.43
2023-02-09T04:11:28.242Z,-4.53
2023-02-09T04:13:55.258Z,-4.42
2023-02-09T04:16:22.111Z,-4.45
2023-02-09T04:18:48.761Z,-4.81
2023-02-09T04:21:15.407Z,-4.65
2023-02-09T04:23:42.090Z,-4.89
2023-02-09T04:26:08.949Z,-4.45
2023-02-09T04:28:35.745Z,-4.48
2023-02-09T04:31:02.471Z,-4.52
2023-02-09T04:33:29.378Z,-4.85
2023-02-09T04:35:56.207Z,-5.04
2023-02-09T04:38:23.454Z,-5.20
2023-02-09T04:40:53.436Z,-5.17
2023-02-09T04:43:20.781Z,-5.02
2023-02-09T04:45:47.546Z,-4.91
2023-02-09T04:48:17.996Z,-4.63
2023-02-09T04:50:45.403Z,-4.60
2023-02-09T04:53:13.153Z,-4.31
2023-02-09T04:55:41.230Z,-4.31
2023-02-09T04:58:27.811Z,-4.40
2023-02-09T05:00:56.036Z,-4.31
2023-02-09T05:03:24.661Z,-4.21
2023-02-09T05:05:55.745Z,-4.32
2023-02-09T05:08:23.130Z,-4.31
2023-02-09T05:10:54.270Z,-4.65
2023-02-09T05:13:21.980Z,-4.89
2023-02-09T05:15:48.731Z,-4.82
2023-02-09T05:18:16.404Z,-5.03
2023-02-09T05:20:45.308Z,-4.74
2023-02-09T05:23:12.738Z,-4.55
2023-02-09T05:25:39.444Z,-4.50
2023-02-09T05:28:06.395Z,-4.26
2023-02-09T05:30:34.963Z,-4.40
2023-02-09T05:33:03.240Z,-4.53
2023-02-09T05:35:30.011Z,-4.50
2023-02-09T05:37:56.556Z,-4.64
2023-02-09T05:40:23.166Z,-4.57
2023-02-09T05:42:49.759Z,-4.36
2023-02-09T05:45:16.478Z,-4.10
2023-02-09T05:47:43.074Z,-4.21
2023-02-09T05:50:10.068Z,-4.15
2023-02-09T05:52:36.738Z,-3.87
2023-02-09T05:55:04.367Z,-3.96
2023-02-09T05:57:31.022Z,-3.95
2023-02-09T05:59:57.618Z,-4.12
2023-02-09T06:02:24.303Z,-4.03
2023-02-09T06:04:51.017Z,-4.13
2023-02-09T06:07:17.575Z,-4.14
2023-02-09T06:09:44.185Z,-4.13
2023-02-09T06:12:10.839Z,-4.14
2023-02-09T06:14:40.201Z,-3.96
2023-02-09T06:17:06.852Z,-3.92
2023-02-09T06:19:33.541Z,-3.83
2023-02-09T06:22:00.174Z,-3.70
2023-02-09T06:24:26.874Z,-4.08
2023-02-09T06:26:53.487Z,-3.95
2023-02-09T06:29:20.058Z,-3.91
2023-02-09T06:31:46.863Z,-3.68
2023-02-09T06:34:13.789Z,-3.70
2023-02-09T06:36:40.565Z,-3.70
2023-02-09T06:39:09.313Z,-4.08
2023-02-09T06:41:36.618Z,-4.33
2023-02-09T06:44:03.982Z,-3.83
2023-02-09T06:46:31.812Z,-4.13
2023-02-09T06:48:59.596Z,-3.47
2023-02-09T06:51:26.674Z,-3.22
2023-02-09T06:53:53.679Z,-3.24
2023-02-09T06:56:20.767Z,-2.99
2023-02-09T06:58:47.576Z,-3.87
2023-02-09T07:01:18.312Z,-3.47
2023-02-09T07:03:45.259Z,-4.45
2023-02-09T07:06:18.574Z,-4.21
2023-02-09T07:08:46.604Z,-3.63
2023-02-09T07:11:16.103Z,-3.62
2023-02-09T07:13:43.250Z,-3.70
2023-02-09T07:16:11.244Z,-3.41
2023-02-09T07:18:39.615Z,-3.79
2023-02-09T07:21:15.595Z,-2.88
2023-02-09T07:23:42.309Z,-2.91
2023-02-09T07:26:13.332Z,-3.14
2023-02-09T07:28:39.960Z,-3.39
2023-02-09T07:31:08.867Z,-2.99
2023-02-09T07:33:36.247Z,-2.62
2023-02-09T07:36:08.293Z,-3.22
2023-02-09T07:38:35.624Z,-2.54
2023-02-09T07:41:04.338Z,-3.24
2023-02-09T07:43:31.832Z,-2.82
2023-02-09T07:46:03.157Z,-2.41
2023-02-09T07:48:30.502Z,-2.37
2023-02-09T07:50:57.389Z,-3.20
2023-02-09T07:53:24.538Z,-2.47
2023-02-09T07:55:51.219Z,-2.69
2023-02-09T07:58:19.994Z,-2.64
2023-02-09T08:00:50.932Z,-2.13
2023-02-09T08:03:20.387Z,-2.07
2023-02-09T08:05:55.863Z,-1.69
2023-02-09T08:08:22.502Z,-2.19
2023-02-09T08:10:50.064Z,-1.95
2023-02-09T08:13:16.881Z,-1.82
2023-02-09T08:15:45.904Z,-2.01
2023-02-09T08:18:16.939Z,-1.96
2023-02-09T08:20:48.659Z,-1.63
2023-02-09T08:23:30.199Z,-1.56
2023-02-09T08:26:00.329Z,-2.04
2023-02-09T08:28:41.629Z,-1.93
2023-02-09T08:31:08.717Z,-1.33
2023-02-09T08:33:35.423Z,-1.94
2023-02-09T08:36:02.078Z,-1.69
2023-02-09T08:38:28.732Z,-0.99
2023-02-09T08:40:55.347Z,-0.52
2023-02-09T08:43:21.994Z,-0.38
2023-02-09T08:45:49.124Z,-0.35
2023-02-09T08:48:16.018Z,-0.44
2023-02-09T08:50:42.682Z,-0.51
2023-02-09T08:53:09.366Z,-0.24
2023-02-09T08:55:38.231Z,-0.53
2023-02-09T08:58:05.207Z,-0.16
2023-02-09T09:00:32.336Z,0.02
2023-02-09T09:02:58.942Z,-0.26
2023-02-09T09:05:25.639Z,-0.11
2023-02-09T09:07:52.251Z,-0.27
2023-02-09T09:10:18.990Z,0.25
2023-02-09T09:12:45.674Z,0.37
2023-02-09T09:15:12.357Z,0.41
2023-02-09T09:17:38.959Z,-0.13
2023-02-09T09:20:07.035Z,-0.03
2023-02-09T09:22:33.851Z,0.22
2023-02-09T09:25:00.565Z,-0.24
2023-02-09T09:27:28.317Z,-0.23
2023-02-09T09:29:55.819Z,-0.01
2023-02-09T09:32:25.130Z,0.09
2023-02-09T09:34:56.078Z,-0.30
2023-02-09T09:37:23.629Z,-0.59
2023-02-09T09:39:51.189Z,-0.45
2023-02-09T09:42:51.473Z,-0.46
2023-02-09T09:45:21.323Z,-0.22
2023-02-09T09:47:48.384Z,0.55
2023-02-09T09:50:24.000Z,0.33
2023-02-09T09:52:57.194Z,0.63
2023-02-09T09:55:27.198Z,0.78
2023-02-09T09:57:55.142Z,0.26
2023-02-09T10:00:26.370Z,0.10
2023-02-09T10:02:53.071Z,1.00
2023-02-09T10:05:35.654Z,0.37
2023-02-09T10:08:22.352Z,0.03
2023-02-09T10:11:07.559Z,0.39
2023-02-09T10:13:38.864Z,0.12
2023-02-09T10:16:26.726Z,0.51
2023-02-09T10:18:56.223Z,-0.23
2023-02-09T10:21:28.990Z,-0.01
2023-02-09T10:24:01.556Z,0.60
2023-02-09T10:26:33.343Z,0.93
2023-02-09T10:29:21.222Z,0.40
2023-02-09T10:31:54.991Z,-0.52
2023-02-09T10:34:31.416Z,-0.03
2023-02-09T10:37:21.748Z,0.08
2023-02-09T10:40:17.531Z,-0.06
2023-02-09T10:43:04.312Z,1.09
2023-02-09T10:45:38.826Z,1.31
2023-02-09T10:48:11.297Z,1.23
2023-02-09T10:51:29.561Z,1.27
2023-02-09T10:53:59.048Z,1.42
2023-02-09T10:56:33.711Z,1.59
2023-02-09T10:59:04.263Z,1.91
2023-02-09T11:01:42.300Z,1.11
2023-02-09T11:04:39.616Z,0.82
2023-02-09T11:07:14.976Z,1.20
2023-02-09T11:09:50.895Z,0.60
2023-02-09T11:12:20.489Z,1.07
2023-02-09T11:14:47.184Z,0.83
2023-02-09T11:17:37.441Z,1.25
2023-02-09T11:20:23.370Z,0.54
2023-02-09T11:22:53.071Z,0.52
2023-02-09T11:25:32.717Z,0.69
2023-02-09T11:28:11.151Z,0.87
2023-02-09T11:30:40.739Z,1.44
2023-02-09T11:33:25.588Z,0.38
2023-02-09T11:36:17.293Z,0.56
2023-02-09T11:39:10.276Z,0.27
2023-02-09T11:42:02.469Z,0.60
2023-02-09T11:45:08.907Z,1.15
2023-02-09T11:47:50.908Z,1.42
2023-02-09T11:50:27.101Z,1.15
2023-02-09T11:52:59.491Z,1.53
2023-02-09T11:55:38.450Z,2.00
2023-02-09T11:58:27.849Z,1.35
2023-02-09T12:01:14.375Z,1.71
2023-02-09T12:03:50.014Z,1.35
2023-02-09T12:06:22.923Z,1.83
2023-02-09T12:09:01.967Z,1.94
2023-02-09T12:11:31.505Z,1.83
2023-02-09T12:14:13.129Z,1.62
2023-02-09T12:16:44.108Z,1.73
2023-02-09T12:19:28.206Z,2.10
2023-02-09T12:21:54.865Z,2.36
2023-02-09T12:24:39.279Z,2.80
2023-02-09T12:27:26.036Z,1.49
2023-02-09T12:29:52.764Z,2.25
2023-02-09T12:32:26.492Z,2.03
2023-02-09T12:34:55.355Z,1.67
2023-02-09T12:37:28.890Z,1.62
2023-02-09T12:40:03.578Z,2.21
2023-02-09T12:42:39.328Z,1.24
2023-02-09T12:45:30.797Z,2.11
2023-02-09T12:48:11.833Z,2.21
2023-02-09T12:50:44.188Z,2.13
2023-02-09T12:53:22.875Z,2.40
2023-02-09T12:56:11.381Z,1.81
2023-02-09T12:58:43.927Z,1.96
2023-02-09T13:01:16.183Z,1.67
2023-02-09T13:03:53.631Z,1.58
2023-02-09T13:06:31.516Z,1.52
2023-02-09T13:09:03.969Z,2.05
2023-02-09T13:11:46.668Z,2.46
2023-02-09T13:14:15.007Z,1.97
2023-02-09T13:17:09.376Z,2.01
2023-02-09T13:19:48.397Z,2.19
2023-02-09T13:22:21.049Z,2.78
2023-02-09T13:24:55.020Z,2.48
2023-02-09T13:27:24.297Z,1.88
2023-02-09T13:29:56.424Z,1.75
2023-02-09T13:32:33.740Z,2.68
2023-02-09T13:35:24.544Z,1.80
2023-02-09T13:38:12.806Z,2.05
2023-02-09T13:40:47.267Z,2.87
2023-02-09T13:43:24.338Z,2.30
2023-02-09T13:45:53.727Z,1.92
2023-02-09T13:48:28.390Z,2.88
2023-02-09T13:50:57.446Z,3.16
2023-02-09T13:53:25.939Z,3.18
2023-02-09T13:55:54.728Z,2.93
2023-02-09T13:58:33.035Z,2.92
2023-02-09T14:01:22.674Z,3.21
2023-02-09T14:04:14.539Z,3.43
2023-02-09T14:06:58.375Z,3.16
2023-02-09T14:09:30.096Z,3.15
2023-02-09T14:12:08.178Z,1.79
2023-02-09T14:15:00.449Z,2.62
2023-02-09T14:17:35.314Z,2.56
2023-02-09T14:20:05.741Z,3.05
2023-02-09T14:22:38.177Z,2.73
2023-02-09T14:25:14.097Z,2.83
2023-02-09T14:27:41.816Z,2.78
2023-02-09T14:30:32.188Z,2.61
2023-02-09T14:33:00.995Z,2.04
2023-02-09T14:35:29.100Z,2.55
2023-02-09T14:37:58.813Z,2.60
2023-02-09T14:40:37.377Z,2.58
2023-02-09T14:43:03.994Z,2.83
2023-02-09T14:45:43.493Z,2.36
2023-02-09T14:48:21.684Z,2.36
2023-02-09T14:50:50.815Z,2.50
2023-02-09T14:53:18.275Z,1.38
2023-02-09T14:55:45.357Z,2.05
2023-02-09T14:58:23.438Z,2.42
2023-02-09T15:00:52.293Z,2.15
2023-02-09T15:03:19.116Z,2.39
2023-02-09T15:05:48.173Z,2.55
2023-02-09T15:08:20.028Z,2.26
2023-02-09T15:11:26.775Z,2.45
2023-02-09T15:13:57.630Z,2.48
2023-02-09T15:16:24.490Z,2.63
2023-02-09T15:18:51.182Z,2.26
2023-02-09T15:21:17.937Z,1.78
2023-02-09T15:23:44.623Z,1.75
2023-02-09T15:26:19.128Z,1.67
2023-02-09T15:28:45.981Z,0.23
2023-02-09T15:31:15.966Z,0.23
2023-02-09T15:33:43.224Z,0.62
2023-02-09T15:36:18.676Z,1.11
2023-02-09T15:38:45.484Z,1.06
2023-02-09T15:41:30.724Z,0.70
2023-02-09T15:44:16.186Z,1.21
2023-02-09T15:47:04.722Z,1.36
2023-02-09T15:49:31.973Z,1.72
2023-02-09T15:51:58.663Z,1.82
2023-02-09T15:54:31.887Z,1.20
2023-02-09T15:56:59.025Z,0.49
2023-02-09T15:59:25.645Z,0.98
2023-02-09T16:01:52.435Z,1.12
2023-02-09T16:04:19.518Z,1.23
2023-02-09T16:06:52.425Z,1.59
2023-02-09T16:09:26.681Z,1.63
2023-02-09T16:11:53.507Z,1.03
2023-02-09T16:14:22.235Z,1.09
2023-02-09T16:16:49.214Z,0.42
2023-02-09T16:19:17.027Z,0.37
2023-02-09T16:21:50.812Z,-0.15
2023-02-09T16:24:41.785Z,0.88
2023-02-09T16:27:16.360Z,0.96
2023-02-09T16:29:43.314Z,0.50
2023-02-09T16:32:24.029Z,0.48
2023-02-09T16:34:51.607Z,0.36
2023-02-09T16:37:26.978Z,-0.04
2023-02-09T16:39:54.885Z,0.88
2023-02-09T16:42:21.638Z,0.85
2023-02-09T16:44:48.260Z,1.05
2023-02-09T16:47:26.099Z,0.48
2023-02-09T16:50:12.986Z,0.59
2023-02-09T16:52:43.403Z,-0.25
2023-02-09T16:55:34.309Z,-0.03
2023-02-09T16:58:03.991Z,-0.15
2023-02-09T17:00:35.976Z,0.13
2023-02-09T17:03:29.195Z,0.66
2023-02-09T17:05:57.343Z,0.78
2023-02-09T17:08:27.444Z,0.83
2023-02-09T17:10:56.233Z,1.01
2023-02-09T17:13:23.242Z,1.06
2023-02-09T17:15:55.202Z,0.61
2023-02-09T17:18:38.858Z,0.78
2023-02-09T17:21:16.613Z,0.79
2023-02-09T17:23:44.011Z,0.74
2023-02-09T17:26:11.943Z,0.78
2023-02-09T17:28:38.675Z,0.69
2023-02-09T17:31:17.920Z,0.63
2023-02-09T17:33:47.759Z,0.68
2023-02-09T17:36:30.717Z,0.73
2023-02-09T17:38:59.683Z,0.75
2023-02-09T17:41:34.014Z,0.64
2023-02-09T17:44:31.607Z,0.64
2023-02-09T17:47:05.887Z,0.52
2023-02-09T17:49:33.276Z,0.38
2023-02-09T17:51:59.873Z,0.48
2023-02-09T17:54:27.876Z,0.63
2023-02-09T17:56:54.565Z,0.81
2023-02-09T17:59:21.391Z,0.63
2023-02-09T18:01:51.594Z,0.53
2023-02-09T18:04:21.626Z,0.62
2023-02-09T18:06:52.050Z,0.57
2023-02-09T18:09:21.874Z,0.41
2023-02-09T18:11:52.649Z,0.21
2023-02-09T18:14:21.758Z,0.23
2023-02-09T18:16:49.055Z,-0.28
2023-02-09T18:19:16.900Z,0.17
2023-02-09T18:21:51.618Z,0.04
2023-02-09T18:24:20.215Z,-0.05
2023-02-09T18:26:49.594Z,-0.15
2023-02-09T18:29:16.433Z,0.09
2023-02-09T18:31:43.104Z,-0.30
2023-02-09T18:34:10.132Z,-0.07
2023-02-09T18:36:36.799Z,-0.14
2023-02-09T18:39:03.632Z,-0.20
2023-02-09T18:41:30.358Z,0.03
2023-02-09T18:43:56.986Z,-0.50
2023-02-09T18:46:27.182Z,-0.65
2023-02-09T18:48:54.760Z,-0.64
2023-02-09T18:51:22.184Z,-0.28
2023-02-09T18:53:50.342Z,-0.23
2023-02-09T18:56:19.502Z,-0.72
2023-02-09T18:58:46.599Z,-0.17
2023-02-09T19:01:13.395Z,-0.56
2023-02-09T19:03:39.987Z,-0.39
2023-02-09T19:06:11.250Z,-0.24
2023-02-09T19:08:40.600Z,-0.57
2023-02-09T19:11:09.264Z,-0.64
2023-02-09T19:13:36.705Z,-0.36
2023-02-09T19:16:03.457Z,-0.33
2023-02-09T19:18:30.293Z,-0.24
2023-02-09T19:20:57.093Z,-0.42
2023-02-09T19:23:24.715Z,-0.91
2023-02-09T19:26:03.057Z,-0.25
2023-02-09T19:28:29.893Z,-0.21
2023-02-09T19:30:57.290Z,-0.14
2023-02-09T19:33:24.005Z,-0.53
2023-02-09T19:36:00.190Z,-0.68
2023-02-09T19:38:27.184Z,-0.65
2023-02-09T19:41:08.517Z,-0.59
2023-02-09T19:43:36.288Z,-0.53
2023-02-09T19:46:04.607Z,-0.83
2023-02-09T19:48:31.875Z,-1.06
2023-02-09T19:50:59.344Z,-0.93
2023-02-09T19:53:26.977Z,-0.57
2023-02-09T19:55:54.369Z,-0.72
2023-02-09T19:58:22.090Z,-0.79
2023-02-09T20:00:50.436Z,-0.61
2023-02-09T20:03:17.810Z,-0.98
2023-02-09T20:05:45.343Z,-0.94
2023-02-09T20:08:15.820Z,-1.02
2023-02-09T20:10:44.174Z,-0.82
2023-02-09T20:13:13.083Z,-0.96
2023-02-09T20:15:43.917Z,-0.66
2023-02-09T20:18:12.647Z,-0.51
2023-02-09T20:20:42.419Z,-0.79
2023-02-09T20:23:10.189Z,-0.82
2023-02-09T20:25:40.803Z,-0.96
2023-02-09T20:28:07.678Z,-0.87
2023-02-09T20:30:34.592Z,-0.89
2023-02-09T20:33:04.190Z,-0.98
2023-02-09T20:35:30.847Z,-0.89
2023-02-09T20:37:57.532Z,-1.19
2023-02-09T20:40:24.122Z,-1.65
2023-02-09T20:43:09.282Z,-1.62
2023-02-09T20:45:54.180Z,-1.73
2023-02-09T20:48:20.938Z,-1.55
2023-02-09T20:50:47.889Z,-1.62
2023-02-09T20:53:14.752Z,-1.43
2023-02-09T20:55:42.716Z,-1.50
2023-02-09T20:58:11.905Z,-1.37
2023-02-09T21:00:39.055Z,-1.31
2023-02-09T21:03:07.378Z,-1.25
2023-02-09T21:05:34.904Z,-1.58
2023-02-09T21:08:04.417Z,-1.51
2023-02-09T21:10:35.855Z,-1.56
2023-02-09T21:13:03.950Z,-1.49
2023-02-09T21:15:30.659Z,-1.62
2023-02-09T21:17:57.370Z,-1.32
2023-02-09T21:20:24.153Z,-1.53
2023-02-09T21:22:51.088Z,-1.35
2023-02-09T21:25:19.326Z,-1.58
2023-02-09T21:27:46.100Z,-1.67
2023-02-09T21:30:13.781Z,-1.80
2023-02-09T21:32:40.391Z,-1.75
2023-02-09T21:35:10.398Z,-1.88
2023-02-09T21:37:42.946Z,-1.74
2023-02-09T21:40:12.237Z,-1.62
2023-02-09T21:42:39.542Z,-2.16
2023-02-09T21:45:07.951Z,-2.55
2023-02-09T21:47:37.678Z,-2.43
2023-02-09T21:50:09.363Z,-1.97
2023-02-09T21:52:36.132Z,-1.58
2023-02-09T21:55:03.007Z,-1.54
2023-02-09T21:57:29.817Z,-1.48
2023-02-09T21:59:58.958Z,-1.64
2023-02-09T22:02:27.461Z,-1.66
2023-02-09T22:04:54.295Z,-1.66
2023-02-09T22:07:21.017Z,-1.53
2023-02-09T22:09:47.566Z,-1.68
2023-02-09T22:12:14.386Z,-2.02
2023-02-09T22:14:41.107Z,-2.00
2023-02-09T22:17:07.758Z,-1.75
2023-02-09T22:19:34.785Z,-1.65
2023-02-09T22:22:01.666Z,-1.75
2023-02-09T22:24:30.042Z,-1.72
2023-02-09T22:26:56.717Z,-2.04
2023-02-09T22:29:23.293Z,-1.84
2023-02-09T22:31:49.963Z,-2.25
2023-02-09T22:34:16.567Z,-1.96
2023-02-09T22:36:43.261Z,-2.05
2023-02-09T22:39:10.100Z,-1.79
2023-02-09T22:41:36.825Z,-1.69
2023-02-09T22:44:07.993Z,-2.05
2023-02-09T22:46:40.519Z,-1.89
2023-02-09T22:49:12.140Z,-1.99
2023-02-09T22:51:39.089Z,-2.44
2023-02-09T22:54:06.441Z,-2.15
2023-02-09T22:56:33.682Z,-2.43
2023-02-09T22:59:01.012Z,-2.80
2023-02-09T23:01:29.017Z,-2.43
2023-02-09T23:03:55.987Z,-2.16
2023-02-09T23:06:27.097Z,-2.23
2023-02-09T23:08:55.499Z,-2.15
2023-02-09T23:11:22.817Z,-2.32
2023-02-09T23:13:54.951Z,-2.63
2023-02-09T23:16:31.418Z,-2.64
2023-02-09T23:19:01.082Z,-2.66
2023-02-09T23:21:32.521Z,-2.47
2023-02-09T23:23:59.428Z,-2.13
2023-02-09T23:26:27.173Z,-2.22
2023-02-09T23:28:59.275Z,-2.16
2023-02-09T23:31:27.015Z,-2.13
2023-02-09T23:33:54.343Z,-1.83
2023-02-09T23:36:25.410Z,-2.27
2023-02-09T23:38:56.805Z,-2.19
2023-02-09T23:41:24.208Z,-2.21
2023-02-09T23:43:51.336Z,-2.42
2023-02-09T23:46:20.637Z,-2.57
2023-02-09T23:48:47.989Z,-2.52
2023-02-09T23:51:20.580Z,-2.35
2023-02-09T23:53:48.027Z,-2.13
2023-02-09T23:56:16.429Z,-2.09
2023-02-09T23:58:46.508Z,-2.04
